Triumph — WDC9555 — position and weather

sailwx.info

Track history (hours):
 
Tides and Currents Weather Stations Pressure Air Temp Water Temp Dewpoint Dewpoint Depression Visibility Wind Speed Wind Dir Waves Ship Positions

Triumph

Owner: WESTERN TOWBOAT CO, SEATTLE, WA. More information available from US FCC via Universal Licensing System and Coast Guard Vessel Documentation Center.

Last reported at 2014-Dec-18 10:33 UTC. Time now 2014-Dec-18 11:31 UTC.
Position N 47°34' W 122°21'.

Length 24 m; draft 3 m.

Type: Tow > 200 m length. MMSI: 367103880.

Date/timePositionNaut miles runAvg speedWind from/ knotsBaromVisibWave heightAir tempDewpointWater temp
2014-Dec-18 10:33N 47°34' W 122°21'0 0.0
2014-Dec-18 09:33N 47°34' W 122°21'0 0.0
2014-Dec-18 08:33N 47°34' W 122°21'0 0.0
2014-Dec-18 07:34N 47°34' W 122°21'0 0.0
2014-Dec-18 06:33N 47°34' W 122°21'0 0.0
2014-Dec-18 05:33N 47°34' W 122°21'0 0.0
2014-Dec-18 04:33N 47°34' W 122°21'0 0.0
2014-Dec-18 03:33N 47°34' W 122°21'0 0.0
2014-Dec-18 02:33N 47°34' W 122°21'0 0.4
2014-Dec-18 01:33N 47°34' W 122°21'2 1.9
2014-Dec-18 00:33N 47°36' W 122°23'7 6.9
2014-Dec-17 23:34N 47°35' W 122°33'6 6.3
2014-Dec-17 22:33N 47°32' W 122°41'2 2.1
2014-Dec-17 21:34N 47°33' W 122°38'6 6.0
2014-Dec-17 20:34N 47°34' W 122°29'5 5.3
2014-Dec-17 19:33N 47°35' W 122°22'1 0.7
2014-Dec-17 18:33N 47°35' W 122°22'1 1.4
2014-Dec-17 17:33N 47°34' W 122°21'  
2014-Dec-13 07:12N 47°34' W 122°21'2 2.8
2014-Dec-13 06:33N 47°36' W 122°23'5 4.8
2014-Dec-13 05:33N 47°39' W 122°28'7 6.6
2014-Dec-13 04:33N 47°45' W 122°27'7 7.2
2014-Dec-13 03:33N 47°53' W 122°29'7 7.2
2014-Dec-13 02:32N 47°59' W 122°36'14 6.8
2014-Dec-13 00:29N 48°10' W 122°47'8 6.9
2014-Dec-12 23:22N 48°18' W 122°48'6 7.5
2014-Dec-12 22:33N 48°24' W 122°45'8 8.4
2014-Dec-12 21:33N 48°32' W 122°45'8 8.5
2014-Dec-12 20:33N 48°41' W 122°44'7 7.0
2014-Dec-12 19:33N 48°46' W 122°51'7 7.2
2014-Dec-12 18:33N 48°50' W 122°60'7 6.7
2014-Dec-12 17:33N 48°54' W 123°08'7 6.7
2014-Dec-12 16:33N 48°59' W 123°15'6 5.7
2014-Dec-12 15:33N 49°03' W 123°21'5 4.8
2014-Dec-12 14:33N 49°07' W 123°16'5 5.2
2014-Dec-12 13:33N 49°07' W 123°08'5 4.7
2014-Dec-12 12:33N 49°09' W 123°02'0 0.0
2014-Dec-12 11:33N 49°09' W 123°02'0 0.0
2014-Dec-12 10:33N 49°09' W 123°02'0 0.0
2014-Dec-12 09:33N 49°09' W 123°02'0 0.0
2014-Dec-12 08:33N 49°09' W 123°02'0 0.0
2014-Dec-12 07:33N 49°09' W 123°02'0 0.0
2014-Dec-12 06:33N 49°09' W 123°02'0 0.0
2014-Dec-12 05:33N 49°09' W 123°02'0 0.0
2014-Dec-12 04:33N 49°09' W 123°02'0 0.0
2014-Dec-12 03:33N 49°09' W 123°02'0 0.0
2014-Dec-12 02:33N 49°09' W 123°02'0 0.0
2014-Dec-12 01:33N 49°09' W 123°02'0 0.0
2014-Dec-12 00:33N 49°09' W 123°02'0 0.0
2014-Dec-11 23:33N 49°09' W 123°02'0 0.0
2014-Dec-11 22:33N 49°09' W 123°02'0 0.0
2014-Dec-11 21:33N 49°09' W 123°02'0 0.0
2014-Dec-11 20:33N 49°09' W 123°02'0 0.0
2014-Dec-11 19:33N 49°09' W 123°02'0 0.0
2014-Dec-11 18:33N 49°09' W 123°02'0 0.0
2014-Dec-11 17:33N 49°09' W 123°02'0 0.0
2014-Dec-11 16:33N 49°09' W 123°02'0 0.0
2014-Dec-11 15:33N 49°09' W 123°02'0 0.0
2014-Dec-11 14:33N 49°09' W 123°02'0 0.0
2014-Dec-11 13:33N 49°09' W 123°02'0 0.0
2014-Dec-11 12:33N 49°09' W 123°02'0 0.0
2014-Dec-11 11:33N 49°09' W 123°02'2 2.5
2014-Dec-11 10:33N 49°07' W 123°05'5 4.8
2014-Dec-11 09:33N 49°07' W 123°12'5 4.5
2014-Dec-11 08:33N 49°06' W 123°19'6 5.7
2014-Dec-11 07:33N 49°01' W 123°15'9 8.5
2014-Dec-11 06:31N 48°55' W 123°05'9 8.9
2014-Dec-11 05:33N 48°50' W 122°55'9 8.4
2014-Dec-11 04:31N 48°44' W 122°45'8 8.5
2014-Dec-11 03:33N 48°36' W 122°45'37 8.8
2014-Dec-10 23:21N 47°59' W 122°35'8 9.5
2014-Dec-10 22:34N 47°54' W 122°28'10 9.8
2014-Dec-10 21:33N 47°44' W 122°26'10 8.9
2014-Dec-10 20:29N 47°35' W 122°22'1 0.9
2014-Dec-10 19:33N 47°34' W 122°21'1 0.7
2014-Dec-10 18:33N 47°33' W 122°21'2 2.3
2014-Dec-10 17:33N 47°36' W 122°22'1 0.6
2014-Dec-10 16:34N 47°35' W 122°21'0 0.2
2014-Dec-10 15:33N 47°35' W 122°22'1 0.0
2014-Dec-08 22:16N 47°34' W 122°21'0 0.1
2014-Dec-08 22:13N 47°34' W 122°21'2 2.8
2014-Dec-08 21:33N 47°36' W 122°21'0 3.9
2014-Dec-08 21:32N 47°36' W 122°22'2 1.9
2014-Dec-08 20:33N 47°34' W 122°21'0 0.0
2014-Dec-08 20:32N 47°34' W 122°21'  
Track history (hours):
 
Tides and Currents Weather Stations Pressure Air Temp Water Temp Dewpoint Dewpoint Depression Visibility Wind Speed Wind Dir Waves Ship Positions

Triumph

Owner: WESTERN TOWBOAT CO, SEATTLE, WA. More information available from US FCC via Universal Licensing System and Coast Guard Vessel Documentation Center.

Last reported at 2014-Dec-18 10:33 UTC. Time now 2014-Dec-18 11:31 UTC.
Position N 47°34' W 122°21'.

Length 24 m; draft 3 m.

Type: Tow > 200 m length. MMSI: 367103880.

Date/timePositionNaut miles runAvg speedWind from/ knotsBaromVisibWave heightAir tempDewpointWater temp
2014-Dec-18 10:33N 47°34' W 122°21'0 0.0
2014-Dec-18 09:33N 47°34' W 122°21'0 0.0
2014-Dec-18 08:33N 47°34' W 122°21'0 0.0
2014-Dec-18 07:34N 47°34' W 122°21'0 0.0
2014-Dec-18 06:33N 47°34' W 122°21'0 0.0
2014-Dec-18 05:33N 47°34' W 122°21'0 0.0
2014-Dec-18 04:33N 47°34' W 122°21'0 0.0
2014-Dec-18 03:33N 47°34' W 122°21'0 0.0
2014-Dec-18 02:33N 47°34' W 122°21'0 0.4
2014-Dec-18 01:33N 47°34' W 122°21'2 1.9
2014-Dec-18 00:33N 47°36' W 122°23'7 6.9
2014-Dec-17 23:34N 47°35' W 122°33'6 6.3
2014-Dec-17 22:33N 47°32' W 122°41'2 2.1
2014-Dec-17 21:34N 47°33' W 122°38'6 6.0
2014-Dec-17 20:34N 47°34' W 122°29'5 5.3
2014-Dec-17 19:33N 47°35' W 122°22'1 0.7
2014-Dec-17 18:33N 47°35' W 122°22'1 1.4
2014-Dec-17 17:33N 47°34' W 122°21'  
2014-Dec-13 07:12N 47°34' W 122°21'2 2.8
2014-Dec-13 06:33N 47°36' W 122°23'5 4.8
2014-Dec-13 05:33N 47°39' W 122°28'7 6.6
2014-Dec-13 04:33N 47°45' W 122°27'7 7.2
2014-Dec-13 03:33N 47°53' W 122°29'7 7.2
2014-Dec-13 02:32N 47°59' W 122°36'14 6.8
2014-Dec-13 00:29N 48°10' W 122°47'8 6.9
2014-Dec-12 23:22N 48°18' W 122°48'6 7.5
2014-Dec-12 22:33N 48°24' W 122°45'8 8.4
2014-Dec-12 21:33N 48°32' W 122°45'8 8.5
2014-Dec-12 20:33N 48°41' W 122°44'7 7.0
2014-Dec-12 19:33N 48°46' W 122°51'7 7.2
2014-Dec-12 18:33N 48°50' W 122°60'7 6.7
2014-Dec-12 17:33N 48°54' W 123°08'7 6.7
2014-Dec-12 16:33N 48°59' W 123°15'6 5.7
2014-Dec-12 15:33N 49°03' W 123°21'5 4.8
2014-Dec-12 14:33N 49°07' W 123°16'5 5.2
2014-Dec-12 13:33N 49°07' W 123°08'5 4.7
2014-Dec-12 12:33N 49°09' W 123°02'0 0.0
2014-Dec-12 11:33N 49°09' W 123°02'0 0.0
2014-Dec-12 10:33N 49°09' W 123°02'0 0.0
2014-Dec-12 09:33N 49°09' W 123°02'0 0.0
2014-Dec-12 08:33N 49°09' W 123°02'0 0.0
2014-Dec-12 07:33N 49°09' W 123°02'0 0.0
2014-Dec-12 06:33N 49°09' W 123°02'0 0.0
2014-Dec-12 05:33N 49°09' W 123°02'0 0.0
2014-Dec-12 04:33N 49°09' W 123°02'0 0.0
2014-Dec-12 03:33N 49°09' W 123°02'0 0.0
2014-Dec-12 02:33N 49°09' W 123°02'0 0.0
2014-Dec-12 01:33N 49°09' W 123°02'0 0.0
2014-Dec-12 00:33N 49°09' W 123°02'0 0.0
2014-Dec-11 23:33N 49°09' W 123°02'0 0.0
2014-Dec-11 22:33N 49°09' W 123°02'0 0.0
2014-Dec-11 21:33N 49°09' W 123°02'0 0.0
2014-Dec-11 20:33N 49°09' W 123°02'0 0.0
2014-Dec-11 19:33N 49°09' W 123°02'0 0.0
2014-Dec-11 18:33N 49°09' W 123°02'0 0.0
2014-Dec-11 17:33N 49°09' W 123°02'0 0.0
2014-Dec-11 16:33N 49°09' W 123°02'0 0.0
2014-Dec-11 15:33N 49°09' W 123°02'0 0.0
2014-Dec-11 14:33N 49°09' W 123°02'0 0.0
2014-Dec-11 13:33N 49°09' W 123°02'0 0.0
2014-Dec-11 12:33N 49°09' W 123°02'0 0.0
2014-Dec-11 11:33N 49°09' W 123°02'2 2.5
2014-Dec-11 10:33N 49°07' W 123°05'5 4.8
2014-Dec-11 09:33N 49°07' W 123°12'5 4.5
2014-Dec-11 08:33N 49°06' W 123°19'6 5.7
2014-Dec-11 07:33N 49°01' W 123°15'9 8.5
2014-Dec-11 06:31N 48°55' W 123°05'9 8.9
2014-Dec-11 05:33N 48°50' W 122°55'9 8.4
2014-Dec-11 04:31N 48°44' W 122°45'8 8.5
2014-Dec-11 03:33N 48°36' W 122°45'37 8.8
2014-Dec-10 23:21N 47°59' W 122°35'8 9.5
2014-Dec-10 22:34N 47°54' W 122°28'10 9.8
2014-Dec-10 21:33N 47°44' W 122°26'10 8.9
2014-Dec-10 20:29N 47°35' W 122°22'1 0.9
2014-Dec-10 19:33N 47°34' W 122°21'1 0.7
2014-Dec-10 18:33N 47°33' W 122°21'2 2.3
2014-Dec-10 17:33N 47°36' W 122°22'1 0.6
2014-Dec-10 16:34N 47°35' W 122°21'0 0.2
2014-Dec-10 15:33N 47°35' W 122°22'1 0.0
2014-Dec-08 22:16N 47°34' W 122°21'0 0.1
2014-Dec-08 22:13N 47°34' W 122°21'2 2.8
2014-Dec-08 21:33N 47°36' W 122°21'0 3.9
2014-Dec-08 21:32N 47°36' W 122°22'2 1.9
2014-Dec-08 20:33N 47°34' W 122°21'0 0.0
2014-Dec-08 20:32N 47°34' W 122°21'  

Dump ship's entire track history